Archival Weather

Granbury Rgnl

Granbury, Texas (KGDJ)

Report from: Monday, January 29, 2024 7:15 PM UTC
Current time: Tuesday, June 18, 2024 11:23 AM UTC

Current weather – Weather history – Daily summaries
Weather forecast

Temperature20.5°C (68.9°F)
Dew point3.2°C (37.8°F)
Winds 5 kts (2.6 m/s, 5.8 mph) Northwest (310°)
Visibility10 mi. (16.1 km)
Clouds Sky clear
Altimeter30.27 in.Hg (1025 mB)
Relative humidity32 %
Density altitude364 ft. (111 m)
Remarks Fully automated report
Automated weather observing station with precipitation discriminator
Flight conditions Visual Meteorological Conditions
Raw dataKGDJ 291915Z AUTO 31005KT 10SM CLR 21/03 A3027 RMK AO2 T02050032
An error has occurred. This application may no longer respond until reloaded. Reload 🗙